createdAt,value
2019-04-23T00:01:05.211Z,12.40
2019-04-23T00:03:30.581Z,12.30
2019-04-23T00:06:00.121Z,12.30
2019-04-23T00:08:28.562Z,12.20
2019-04-23T00:10:58.857Z,12.30
2019-04-23T00:13:30.439Z,12.30
2019-04-23T00:16:03.788Z,12.30
2019-04-23T00:18:36.822Z,12.20
2019-04-23T00:21:08.300Z,12.10
2019-04-23T00:23:45.868Z,12.10
2019-04-23T00:28:50.575Z,12.00
2019-04-23T00:31:18.283Z,11.90
2019-04-23T00:33:46.213Z,12.00
2019-04-23T00:36:23.083Z,11.90
2019-04-23T00:38:46.355Z,11.90
2019-04-23T00:41:22.204Z,11.80
2019-04-23T00:43:56.226Z,11.70
2019-04-23T00:46:22.111Z,11.80
2019-04-23T00:51:16.862Z,11.90
2019-04-23T00:53:51.319Z,11.80
2019-04-23T00:58:54.987Z,11.60
2019-04-23T01:01:27.480Z,11.50
2019-04-23T01:03:53.410Z,11.40
2019-04-23T01:06:24.031Z,11.50
2019-04-23T01:08:52.349Z,11.50
2019-04-23T01:11:27.724Z,11.60
2019-04-23T01:13:54.109Z,11.70
2019-04-23T01:16:22.941Z,11.50
2019-04-23T01:19:20.698Z,11.50
2019-04-23T01:21:36.643Z,11.40
2019-04-23T01:24:25.851Z,11.40
2019-04-23T01:30:08.407Z,11.20
2019-04-23T01:32:33.552Z,11.20
2019-04-23T01:35:18.880Z,11.10
2019-04-23T01:37:33.500Z,11.20
2019-04-23T01:40:04.278Z,11.10
2019-04-23T01:45:10.934Z,11.10
2019-04-23T01:47:38.964Z,11.00
2019-04-23T01:55:09.962Z,10.90
2019-04-23T01:57:39.112Z,11.00
2019-04-23T02:02:46.088Z,10.80
2019-04-23T02:05:17.352Z,10.80
2019-04-23T02:07:45.153Z,10.80
2019-04-23T02:12:42.041Z,10.90
2019-04-23T02:15:16.835Z,10.90
2019-04-23T02:17:47.800Z,10.80
2019-04-23T02:20:17.851Z,10.80
2019-04-23T02:23:00.015Z,10.80
2019-04-23T02:25:30.353Z,10.80
2019-04-23T02:27:57.938Z,10.80
2019-04-23T02:30:48.933Z,10.70
2019-04-23T02:33:14.304Z,10.70
2019-04-23T02:40:38.123Z,10.60
2019-04-23T02:43:06.711Z,10.60
2019-04-23T02:45:27.052Z,10.60
2019-04-23T02:48:19.701Z,10.50
2019-04-23T02:53:09.403Z,10.50
2019-04-23T02:55:39.292Z,10.40
2019-04-23T02:58:01.861Z,10.30
2019-04-23T03:00:40.182Z,10.30
2019-04-23T03:05:37.532Z,10.30
2019-04-23T03:08:00.603Z,10.30
2019-04-23T03:10:43.325Z,10.30
2019-04-23T03:13:09.246Z,10.30
2019-04-23T03:16:04.487Z,10.30
2019-04-23T03:26:47.952Z,10.10
2019-04-23T03:43:46.486Z,10.00
2019-04-23T03:48:52.916Z,10.00
2019-04-23T03:59:01.229Z,10.20
2019-04-23T04:01:30.119Z,10.10
2019-04-23T04:06:50.139Z,10.10
2019-04-23T04:11:33.712Z,10.00
2019-04-23T04:14:12.140Z,10.00
2019-04-23T04:16:34.249Z,9.90
2019-04-23T04:19:16.548Z,10.10
2019-04-23T04:21:39.762Z,10.00
2019-04-23T04:24:16.483Z,10.00
2019-04-23T04:31:42.884Z,10.10
2019-04-23T04:34:22.268Z,10.10
2019-04-23T04:36:45.012Z,10.00
2019-04-23T04:38:59.034Z,10.00
2019-04-23T04:41:40.452Z,9.90
2019-04-23T04:44:37.413Z,9.90
2019-04-23T04:46:47.165Z,9.90
2019-04-23T04:49:15.082Z,9.90
2019-04-23T04:57:08.158Z,9.90
2019-04-23T04:59:08.768Z,9.80
2019-04-23T05:01:36.745Z,9.90
2019-04-23T05:04:13.487Z,9.90
2019-04-23T05:09:29.309Z,9.80
2019-04-23T05:11:54.133Z,9.80
2019-04-23T05:16:49.144Z,10.00
2019-04-23T05:19:31.600Z,10.00
2019-04-23T05:24:14.931Z,10.00
2019-04-23T05:26:51.521Z,10.10
2019-04-23T05:29:13.150Z,10.10
2019-04-23T05:31:38.506Z,10.00
2019-04-23T05:34:26.358Z,10.10
2019-04-23T05:36:52.027Z,10.10
2019-04-23T05:39:20.826Z,10.20
2019-04-23T05:41:45.306Z,10.10
2019-04-23T05:44:21.184Z,10.20
2019-04-23T05:46:47.996Z,10.20
2019-04-23T05:49:22.475Z,10.20
2019-04-23T05:51:55.569Z,10.30
2019-04-23T05:56:53.926Z,10.40
2019-04-23T05:59:25.380Z,10.50
2019-04-23T06:04:27.092Z,10.30
2019-04-23T06:09:25.200Z,10.30
2019-04-23T06:14:39.039Z,10.40
2019-04-23T06:16:57.691Z,10.40
2019-04-23T06:19:36.691Z,10.50
2019-04-23T06:24:26.123Z,10.60
2019-04-23T06:29:32.298Z,10.50
2019-04-23T06:31:53.985Z,10.50
2019-04-23T06:34:31.568Z,10.60
2019-04-23T06:36:59.008Z,10.70
2019-04-23T06:39:28.593Z,10.60
2019-04-23T06:41:54.785Z,10.60
2019-04-23T06:49:44.221Z,10.40
2019-04-23T06:52:09.992Z,10.40
2019-04-23T06:54:45.924Z,10.40
2019-04-23T06:57:09.011Z,10.40
2019-04-23T06:59:34.043Z,10.50
2019-04-23T07:02:06.683Z,10.60
2019-04-23T07:04:37.048Z,10.60
2019-04-23T07:07:34.763Z,10.60
2019-04-23T07:09:33.890Z,10.60
2019-04-23T07:12:05.613Z,10.60
2019-04-23T07:14:44.165Z,10.60
2019-04-23T07:17:02.374Z,10.50
2019-04-23T07:22:14.468Z,10.40
2019-04-23T07:24:45.838Z,10.30
2019-04-23T07:27:11.936Z,10.30
2019-04-23T07:29:38.953Z,10.30
2019-04-23T07:32:11.829Z,10.20
2019-04-23T07:34:52.645Z,10.40
2019-04-23T07:37:12.498Z,10.50
2019-04-23T07:40:11.408Z,10.50
2019-04-23T07:42:29.589Z,10.40
2019-04-23T07:48:03.849Z,10.30
2019-04-23T07:55:34.718Z,10.50
2019-04-23T07:58:06.449Z,10.50
2019-04-23T08:00:34.477Z,10.60
2019-04-23T08:03:08.697Z,10.60
2019-04-23T08:05:35.786Z,10.50
2019-04-23T08:08:00.210Z,10.50
2019-04-23T08:10:37.620Z,10.50
2019-04-23T08:13:12.040Z,10.50
2019-04-23T08:15:35.146Z,10.60
2019-04-23T08:18:16.011Z,10.70
2019-04-23T08:20:46.997Z,10.70
2019-04-23T08:23:38.226Z,10.70
2019-04-23T08:26:32.372Z,10.60
2019-04-23T08:29:01.071Z,10.60
2019-04-23T08:31:27.488Z,10.60
2019-04-23T08:33:56.897Z,10.60
2019-04-23T08:36:29.541Z,10.70
2019-04-23T08:38:53.959Z,10.50
2019-04-23T08:41:28.428Z,10.60
2019-04-23T08:43:56.832Z,10.60
2019-04-23T08:46:51.990Z,10.50
2019-04-23T08:49:25.766Z,10.40
2019-04-23T08:51:53.348Z,10.40
2019-04-23T08:54:26.699Z,10.30
2019-04-23T08:56:55.045Z,10.20
2019-04-23T08:59:25.449Z,10.20
2019-04-23T09:02:07.166Z,10.00
2019-04-23T09:04:28.875Z,10.10
2019-04-23T09:06:53.180Z,10.10
2019-04-23T09:09:30.780Z,10.10
2019-04-23T09:11:54.383Z,10.10
2019-04-23T09:14:15.689Z,10.10
2019-04-23T09:16:58.315Z,10.00
2019-04-23T09:19:54.521Z,9.90
2019-04-23T09:22:03.746Z,9.90
2019-04-23T09:24:25.761Z,9.90
2019-04-23T09:26:58.725Z,9.80
2019-04-23T09:29:39.285Z,9.90
2019-04-23T09:34:58.867Z,9.90
2019-04-23T09:37:35.703Z,9.90
2019-04-23T09:40:14.954Z,9.80
2019-04-23T09:42:54.430Z,9.70
2019-04-23T09:45:35.863Z,9.70
2019-04-23T09:48:01.530Z,9.60
2019-04-23T09:50:36.643Z,9.70
2019-04-23T09:53:24.114Z,9.60
2019-04-23T10:02:59.570Z,9.40
2019-04-23T10:05:28.109Z,9.30
2019-04-23T10:07:54.340Z,9.40
2019-04-23T10:10:18.426Z,9.30
2019-04-23T10:12:46.209Z,9.30
2019-04-23T10:15:24.387Z,9.30
2019-04-23T10:17:47.182Z,9.20
2019-04-23T10:20:16.411Z,9.20
2019-04-23T10:22:46.258Z,9.20
2019-04-23T10:25:15.424Z,9.20
2019-04-23T10:27:45.373Z,9.20
2019-04-23T10:30:14.506Z,9.30
2019-04-23T10:32:43.496Z,9.30
2019-04-23T10:35:22.332Z,9.30
2019-04-23T10:37:52.224Z,9.30
2019-04-23T10:40:19.395Z,9.30
2019-04-23T10:42:46.041Z,9.30
2019-04-23T10:45:42.408Z,9.30
2019-04-23T10:48:32.630Z,9.40
2019-04-23T10:51:15.786Z,9.40
2019-04-23T10:53:45.939Z,9.30
2019-04-23T10:56:18.525Z,9.30
2019-04-23T10:59:06.543Z,9.40
2019-04-23T11:01:21.073Z,9.40
2019-04-23T11:08:51.838Z,9.40
2019-04-23T11:11:32.346Z,9.40
2019-04-23T11:14:05.796Z,9.40
2019-04-23T11:19:12.364Z,9.30
2019-04-23T11:24:17.021Z,9.40
2019-04-23T11:26:34.459Z,9.40
2019-04-23T11:29:01.660Z,9.40
2019-04-23T11:31:39.248Z,9.30
2019-04-23T11:36:53.854Z,9.10
2019-04-23T11:38:58.620Z,9.00
2019-04-23T11:44:13.363Z,9.10
2019-04-23T11:54:10.932Z,9.20
2019-04-23T11:57:07.848Z,9.20
2019-04-23T11:59:27.492Z,9.30
2019-04-23T12:01:56.245Z,9.30
2019-04-23T12:04:49.912Z,9.30
2019-04-23T12:07:21.401Z,9.30
2019-04-23T12:09:54.992Z,9.40
2019-04-23T12:12:25.070Z,9.30
2019-04-23T12:15:25.216Z,9.30
2019-04-23T12:17:45.973Z,9.30
2019-04-23T12:20:22.993Z,9.30
2019-04-23T12:23:13.907Z,9.30
2019-04-23T12:28:30.155Z,9.30
2019-04-23T12:31:10.039Z,9.20
2019-04-23T12:33:44.107Z,9.10
2019-04-23T12:36:37.685Z,9.10
2019-04-23T12:39:11.194Z,9.10
2019-04-23T12:41:45.250Z,9.00
2019-04-23T12:44:10.684Z,9.20
2019-04-23T12:49:35.749Z,9.40
2019-04-23T12:54:25.220Z,9.40
2019-04-23T12:56:57.135Z,9.40
2019-04-23T12:59:20.291Z,9.40
2019-04-23T13:01:49.802Z,9.50
2019-04-23T13:04:17.949Z,9.50
2019-04-23T13:06:44.205Z,9.50
2019-04-23T13:09:21.936Z,9.50
2019-04-23T13:11:49.691Z,9.50
2019-04-23T13:14:21.694Z,9.40
2019-04-23T13:16:54.053Z,9.40
2019-04-23T13:19:26.419Z,9.40
2019-04-23T13:21:58.621Z,9.30
2019-04-23T13:24:33.058Z,9.20
2019-04-23T13:27:20.661Z,9.30
2019-04-23T13:30:16.551Z,9.40
2019-04-23T13:32:13.696Z,9.40
2019-04-23T13:35:00.554Z,9.40
2019-04-23T13:37:22.704Z,9.40
2019-04-23T13:39:45.442Z,9.40
2019-04-23T13:42:24.409Z,9.40
2019-04-23T13:44:46.736Z,9.30
2019-04-23T13:47:28.231Z,9.30
2019-04-23T13:49:51.301Z,9.40
2019-04-23T13:52:50.062Z,9.40
2019-04-23T13:55:04.298Z,9.40
2019-04-23T13:57:59.339Z,9.40
2019-04-23T13:59:48.391Z,9.50
2019-04-23T14:02:34.462Z,9.60
2019-04-23T14:07:44.597Z,9.70
2019-04-23T14:10:04.715Z,9.70
2019-04-23T14:12:39.688Z,9.60
2019-04-23T14:15:21.645Z,9.60
2019-04-23T14:20:09.927Z,9.50
2019-04-23T14:27:39.392Z,9.60
2019-04-23T14:30:13.145Z,9.60
2019-04-23T14:32:43.196Z,9.60
2019-04-23T14:35:18.410Z,9.50
2019-04-23T14:37:58.102Z,9.50
2019-04-23T14:40:22.304Z,9.50
2019-04-23T14:43:12.173Z,9.40
2019-04-23T14:45:29.638Z,9.50
2019-04-23T14:48:02.698Z,9.50
2019-04-23T14:53:06.321Z,9.50
2019-04-23T14:58:10.471Z,9.40
2019-04-23T15:00:33.973Z,9.30
2019-04-23T15:03:07.242Z,9.30
2019-04-23T15:08:08.816Z,9.30
2019-04-23T15:10:41.318Z,9.40
2019-04-23T15:16:06.232Z,9.40
2019-04-23T15:18:46.782Z,9.50
2019-04-23T15:28:34.165Z,9.60
2019-04-23T15:31:28.357Z,9.50
2019-04-23T15:34:03.883Z,9.50
2019-04-23T15:36:47.091Z,9.50
2019-04-23T15:39:03.806Z,9.40
2019-04-23T15:41:31.861Z,9.50
2019-04-23T15:44:06.005Z,9.50
2019-04-23T15:49:14.705Z,9.40
2019-04-23T15:54:03.136Z,9.40
2019-04-23T15:56:35.521Z,9.50
2019-04-23T16:01:31.984Z,9.50
2019-04-23T16:03:30.140Z,9.40
2019-04-23T16:05:59.420Z,9.40
2019-04-23T16:14:13.101Z,9.40
2019-04-23T16:16:29.863Z,9.50
2019-04-23T16:19:05.393Z,9.50
2019-04-23T16:21:41.602Z,9.40
2019-04-23T16:24:04.300Z,9.50
2019-04-23T16:26:32.346Z,9.60
2019-04-23T16:36:38.936Z,9.50
2019-04-23T16:39:11.974Z,9.50
2019-04-23T16:41:42.230Z,9.50
2019-04-23T16:44:18.306Z,9.50
2019-04-23T16:46:41.481Z,9.40
2019-04-23T16:49:19.477Z,9.50
2019-04-23T16:54:15.252Z,9.60
2019-04-23T16:56:55.526Z,9.50
2019-04-23T16:59:15.328Z,9.40
2019-04-23T17:01:44.551Z,9.40
2019-04-23T17:04:19.604Z,9.50
2019-04-23T17:06:36.182Z,9.50
2019-04-23T17:09:17.416Z,9.50
2019-04-23T17:11:49.056Z,9.40
2019-04-23T17:14:16.277Z,9.40
2019-04-23T17:16:38.069Z,9.60
2019-04-23T17:19:19.274Z,9.60
2019-04-23T17:21:36.896Z,9.50
2019-04-23T17:29:15.179Z,9.50
2019-04-23T17:31:42.297Z,9.50
2019-04-23T17:34:26.757Z,9.60
2019-04-23T17:36:44.291Z,9.50
2019-04-23T17:39:21.212Z,9.50
2019-04-23T17:42:05.172Z,9.50
2019-04-23T17:44:38.771Z,9.50
2019-04-23T17:47:18.348Z,9.40
2019-04-23T17:49:45.763Z,9.40
2019-04-23T17:52:14.264Z,9.40
2019-04-23T17:54:41.422Z,9.40
2019-04-23T18:00:04.754Z,9.40
2019-04-23T18:05:02.840Z,9.40
2019-04-23T20:54:43.200Z,9.40
2019-04-23T20:57:30.554Z,9.30
2019-04-23T21:56:42.958Z,9.50
2019-04-23T22:02:49.064Z,9.50
2019-04-23T22:45:16.132Z,9.50
2019-04-23T22:47:54.996Z,9.50
2019-04-23T22:50:28.237Z,9.50
2019-04-23T22:54:39.780Z,9.50
2019-04-23T23:00:12.924Z,9.50
